Time;durP1;ratioP1;P1;durP2;ratioP2;P2;SDS_P1;SDS_P2;PMS_P1;PMS_P2;Temp;Humidity;BMP_temperature;BMP_pressure;BME280_temperature;BME280_humidity;BME280_pressure;Samples;Min_cycle;Max_cycle;Signal;HPM_P1;HPM_P2
2022/05/17 00:04:33;;;;;;;8.10;3.50;;;;;;;;;;9986618;28;20079;-63
2022/05/17 00:09:29;;;;;;;6.43;3.10;;;;;;;;;;9983879;29;20054;-63
2022/05/17 00:14:26;;;;;;;6.55;2.83;;;;;;;;;;9987085;29;20123;-64
2022/05/17 00:19:23;;;;;;;7.40;3.38;;;;;;;;;;9979390;29;20578;-64
2022/05/17 00:24:20;;;;;;;7.35;3.30;;;;;;;;;;9985623;29;20903;-63
2022/05/17 00:29:17;;;;;;;7.75;3.05;;;;;;;;;;9999842;28;20146;-63
2022/05/17 00:34:13;;;;;;;6.88;3.17;;;;;;;;;;9978937;28;20143;-64
2022/05/17 00:39:09;;;;;;;8.35;3.28;;;;;;;;;;9981910;28;20063;-64
2022/05/17 00:49:24;;;;;;;10.15;4.00;;;;;;;;;;9978992;28;20083;-65
2022/05/17 00:54:21;;;;;;;9.25;4.40;;;;;;;;;;9978100;29;20037;-65
2022/05/17 00:59:17;;;;;;;9.85;3.97;;;;;;;;;;9963033;29;20584;-64
2022/05/17 01:04:17;;;;;;;12.50;3.97;;;;;;;;;;9972087;28;20574;-64
2022/05/17 01:09:13;;;;;;;7.75;3.47;;;;;;;;;;9990384;29;20139;-64
2022/05/17 01:19:26;;;;;;;7.57;3.40;;;;;;;;;;10014833;28;20040;-64
2022/05/17 01:24:23;;;;;;;7.97;3.58;;;;;;;;;;9968123;28;20080;-63
2022/05/17 01:29:20;;;;;;;8.25;3.88;;;;;;;;;;9966765;29;20131;-64
2022/05/17 01:34:16;;;;;;;11.38;4.25;;;;;;;;;;9972409;28;20075;-63
2022/05/17 01:39:12;;;;;;;12.07;4.20;;;;;;;;;;10002483;28;20071;-63
2022/05/17 01:44:09;;;;;;;7.80;3.95;;;;;;;;;;9988447;28;20051;-63
2022/05/17 01:49:06;;;;;;;8.82;3.90;;;;;;;;;;9987140;29;20118;-63
2022/05/17 01:54:02;;;;;;;11.85;4.47;;;;;;;;;;9993756;28;20072;-65
2022/05/17 01:58:58;;;;;;;9.52;4.00;;;;;;;;;;10017067;28;20482;-65
2022/05/17 02:03:55;;;;;;;9.20;3.75;;;;;;;;;;9994019;28;20091;-64
2022/05/17 02:08:51;;;;;;;8.90;4.32;;;;;;;;;;9973104;28;20127;-64
2022/05/17 02:13:47;;;;;;;7.88;3.33;;;;;;;;;;9990813;28;20666;-64
2022/05/17 02:18:43;;;;;;;8.52;4.13;;;;;;;;;;10018170;28;20122;-63
2022/05/17 02:23:40;;;;;;;7.57;3.65;;;;;;;;;;9993234;29;20132;-64
2022/05/17 02:28:36;;;;;;;8.63;4.80;;;;;;;;;;9973388;28;20064;-64
2022/05/17 02:33:32;;;;;;;7.80;4.30;;;;;;;;;;9971855;28;20123;-64
2022/05/17 02:38:29;;;;;;;9.02;4.20;;;;;;;;;;9971842;28;20570;-64
2022/05/17 02:43:25;;;;;;;11.38;4.50;;;;;;;;;;9991752;28;20087;-63
2022/05/17 02:48:21;;;;;;;13.65;4.57;;;;;;;;;;9982411;28;20075;-63
2022/05/17 02:53:18;;;;;;;13.18;4.82;;;;;;;;;;9991617;29;20525;-63
2022/05/17 02:58:14;;;;;;;9.60;4.63;;;;;;;;;;10044750;28;20056;-63
2022/05/17 03:03:10;;;;;;;10.60;5.45;;;;;;;;;;9989341;29;20098;-64
2022/05/17 03:08:07;;;;;;;12.23;4.70;;;;;;;;;;10041984;28;20510;-64
2022/05/17 03:13:03;;;;;;;8.65;4.63;;;;;;;;;;9986705;29;20131;-64
2022/05/17 03:17:59;;;;;;;8.60;4.53;;;;;;;;;;10017518;28;20075;-64
2022/05/17 03:22:55;;;;;;;9.90;4.93;;;;;;;;;;9993878;28;20052;-65
2022/05/17 03:27:53;;;;;;;16.08;5.80;;;;;;;;;;9968452;28;20049;-64
2022/05/17 03:32:49;;;;;;;11.50;5.57;;;;;;;;;;9966549;28;20490;-63
2022/05/17 03:37:46;;;;;;;12.45;5.50;;;;;;;;;;9972359;28;20044;-62
2022/05/17 03:42:42;;;;;;;15.02;5.30;;;;;;;;;;9976694;28;20056;-64
2022/05/17 03:47:39;;;;;;;12.70;5.78;;;;;;;;;;9975288;29;20118;-69
2022/05/17 03:52:35;;;;;;;12.95;6.05;;;;;;;;;;9966249;28;20048;-68
2022/05/17 03:57:32;;;;;;;9.88;5.70;;;;;;;;;;9967405;28;20088;-67
2022/05/17 04:02:28;;;;;;;12.60;6.40;;;;;;;;;;9963353;28;20135;-68
2022/05/17 04:07:24;;;;;;;11.95;6.50;;;;;;;;;;9959833;28;20044;-67
2022/05/17 04:12:21;;;;;;;13.60;7.22;;;;;;;;;;9960410;28;20084;-66
2022/05/17 04:17:17;;;;;;;10.27;6.50;;;;;;;;;;9965950;28;20474;-66
2022/05/17 04:22:14;;;;;;;13.65;6.90;;;;;;;;;;9970506;28;20495;-66
2022/05/17 04:27:12;;;;;;;15.48;8.20;;;;;;;;;;10076581;28;20492;-66
2022/05/17 04:32:09;;;;;;;15.85;7.85;;;;;;;;;;10101975;28;20111;-67
2022/05/17 04:37:06;;;;;;;15.43;9.10;;;;;;;;;;9969149;28;20052;-67
2022/05/17 04:42:03;;;;;;;15.95;8.40;;;;;;;;;;9977710;28;20340;-67
2022/05/17 04:46:59;;;;;;;15.65;8.73;;;;;;;;;;9976763;28;20098;-68
2022/05/17 04:51:55;;;;;;;13.63;8.10;;;;;;;;;;9947651;28;20526;-68
2022/05/17 04:56:52;;;;;;;15.18;7.70;;;;;;;;;;9972064;28;20568;-67
2022/05/17 05:01:51;;;;;;;17.40;9.18;;;;;;;;;;9958211;28;20056;-67
2022/05/17 05:06:48;;;;;;;16.38;9.13;;;;;;;;;;9979402;28;20045;-67
2022/05/17 05:11:44;;;;;;;14.18;9.02;;;;;;;;;;9971254;28;20067;-67
2022/05/17 05:16:40;;;;;;;15.73;9.00;;;;;;;;;;9981195;28;20080;-67
2022/05/17 05:21:36;;;;;;;14.60;9.38;;;;;;;;;;9977619;28;20078;-67
2022/05/17 05:26:33;;;;;;;17.58;10.30;;;;;;;;;;10002301;28;20233;-67
2022/05/17 05:31:29;;;;;;;13.07;9.75;;;;;;;;;;9960549;28;20467;-67
2022/05/17 05:36:26;;;;;;;14.25;9.73;;;;;;;;;;9964788;28;20553;-67
2022/05/17 05:41:23;;;;;;;15.02;9.70;;;;;;;;;;9957455;28;20084;-67
2022/05/17 05:46:19;;;;;;;17.55;11.38;;;;;;;;;;9959908;28;20083;-67
2022/05/17 05:51:17;;;;;;;16.75;10.75;;;;;;;;;;9959847;28;20075;-67
2022/05/17 05:56:15;;;;;;;19.05;11.05;;;;;;;;;;9964080;28;20132;-67
2022/05/17 06:01:11;;;;;;;17.65;10.68;;;;;;;;;;9960881;28;20139;-67
2022/05/17 06:06:10;;;;;;;15.07;11.05;;;;;;;;;;9964416;28;20045;-67
2022/05/17 06:11:07;;;;;;;16.13;9.60;;;;;;;;;;10005550;28;20050;-67
2022/05/17 06:16:04;;;;;;;19.42;11.15;;;;;;;;;;9973680;28;20179;-67
2022/05/17 06:21:00;;;;;;;18.33;12.20;;;;;;;;;;10024758;28;20142;-67
2022/05/17 06:25:57;;;;;;;18.40;12.93;;;;;;;;;;9969126;28;20080;-67
2022/05/17 06:30:53;;;;;;;21.13;12.75;;;;;;;;;;9971002;28;20123;-68
2022/05/17 06:36:01;;;;;;;21.50;13.85;;;;;;;;;;9976931;28;20065;-67
2022/05/17 06:40:57;;;;;;;22.65;12.43;;;;;;;;;;9994921;28;20048;-67
2022/05/17 06:45:53;;;;;;;17.48;12.10;;;;;;;;;;9964772;28;20107;-66
2022/05/17 06:50:50;;;;;;;13.85;9.57;;;;;;;;;;9975309;28;20631;-66
2022/05/17 06:55:46;;;;;;;12.55;8.48;;;;;;;;;;10054359;28;20502;-67
2022/05/17 07:00:42;;;;;;;12.70;8.65;;;;;;;;;;9974100;28;20044;-67
2022/05/17 07:05:39;;;;;;;13.40;8.55;;;;;;;;;;9991268;28;20088;-67
2022/05/17 07:15:51;;;;;;;13.32;9.00;;;;;;;;;;9958721;28;20092;-67
2022/05/17 07:20:48;;;;;;;12.02;8.70;;;;;;;;;;9978787;28;20058;-67
2022/05/17 07:25:45;;;;;;;12.40;8.38;;;;;;;;;;9984548;28;20765;-67
2022/05/17 07:30:42;;;;;;;13.82;9.68;;;;;;;;;;9973679;28;20665;-66
2022/05/17 07:35:39;;;;;;;14.38;8.90;;;;;;;;;;10002818;28;20076;-67
2022/05/17 07:40:36;;;;;;;12.82;8.73;;;;;;;;;;9976828;28;20414;-66
2022/05/17 07:45:32;;;;;;;13.57;10.13;;;;;;;;;;10021371;28;20502;-67
2022/05/17 07:50:28;;;;;;;10.52;7.78;;;;;;;;;;9984793;28;20694;-67
2022/05/17 07:55:25;;;;;;;13.63;9.82;;;;;;;;;;9957144;28;20052;-66
2022/05/17 08:00:21;;;;;;;13.63;9.40;;;;;;;;;;9969361;28;20107;-66
2022/05/17 08:05:17;;;;;;;14.82;10.48;;;;;;;;;;9966190;28;20736;-68
2022/05/17 08:10:14;;;;;;;16.17;10.88;;;;;;;;;;9968310;28;20500;-68
2022/05/17 08:15:11;;;;;;;13.75;9.95;;;;;;;;;;9977120;28;20383;-67
2022/05/17 08:20:09;;;;;;;14.63;10.35;;;;;;;;;;9966862;28;20487;-67
2022/05/17 08:30:22;;;;;;;16.08;10.90;;;;;;;;;;9965457;28;20294;-67
2022/05/17 08:35:18;;;;;;;12.10;8.98;;;;;;;;;;9981126;28;20052;-68
2022/05/17 08:40:20;;;;;;;13.60;11.32;;;;;;;;;;9979689;28;20095;-67
2022/05/17 08:45:19;;;;;;;16.35;12.25;;;;;;;;;;9984398;29;20056;-67
2022/05/17 08:50:21;;;;;;;35.03;18.35;;;;;;;;;;9985497;28;20051;-68
2022/05/17 08:55:24;;;;;;;16.75;12.57;;;;;;;;;;10021242;28;20094;-68
2022/05/17 09:00:25;;;;;;;13.73;11.77;;;;;;;;;;9977243;28;20045;-67
2022/05/17 09:05:33;;;;;;;15.70;12.60;;;;;;;;;;9960381;28;21416;-66
2022/05/17 09:10:53;;;;;;;19.02;14.00;;;;;;;;;;9959601;29;20048;-67
2022/05/17 09:15:52;;;;;;;14.02;11.02;;;;;;;;;;9972601;28;20766;-67
2022/05/17 09:20:49;;;;;;;17.85;13.25;;;;;;;;;;9972790;28;20417;-66
2022/05/17 09:25:57;;;;;;;16.33;12.60;;;;;;;;;;9977702;28;20516;-66
2022/05/17 09:31:08;;;;;;;12.82;10.25;;;;;;;;;;9976188;28;20118;-66
2022/05/17 09:36:05;;;;;;;14.80;11.48;;;;;;;;;;9983073;28;20055;-67
2022/05/17 09:41:06;;;;;;;12.20;10.25;;;;;;;;;;9976323;28;20083;-67
2022/05/17 09:46:28;;;;;;;11.25;8.35;;;;;;;;;;9987743;28;20106;-66
2022/05/17 09:56:44;;;;;;;13.70;7.65;;;;;;;;;;9986579;29;20056;-66
2022/05/17 10:01:40;;;;;;;8.27;5.68;;;;;;;;;;9991589;28;20080;-67
2022/05/17 10:06:41;;;;;;;10.95;5.65;;;;;;;;;;9983115;29;20060;-67
2022/05/17 10:11:44;;;;;;;9.13;5.60;;;;;;;;;;9980247;29;20044;-67
2022/05/17 10:16:40;;;;;;;;;;;;;;;;;;9982361;29;20513;-68
2022/05/17 10:21:36;;;;;;;8.32;5.28;;;;;;;;;;9980098;28;19935;-67
2022/05/17 10:26:36;;;;;;;6.55;4.28;;;;;;;;;;9993614;28;20044;-67
2022/05/17 10:31:40;;;;;;;8.50;4.57;;;;;;;;;;9969709;28;20052;-68
2022/05/17 10:36:41;;;;;;;8.10;3.45;;;;;;;;;;9980863;28;20550;-68
2022/05/17 10:41:38;;;;;;;6.57;3.60;;;;;;;;;;9978492;28;20044;-68
2022/05/17 10:46:38;;;;;;;5.30;2.17;;;;;;;;;;9972139;28;20494;-68
2022/05/17 10:51:53;;;;;;;4.30;2.33;;;;;;;;;;9963726;28;20540;-68
2022/05/17 10:57:03;;;;;;;3.35;2.10;;;;;;;;;;9982327;28;20047;-68
2022/05/17 11:02:02;;;;;;;4.22;2.03;;;;;;;;;;9976479;28;20128;-67
2022/05/17 11:07:04;;;;;;;3.83;1.90;;;;;;;;;;9970899;28;20044;-68
2022/05/17 11:12:06;;;;;;;3.47;2.30;;;;;;;;;;9972647;28;20082;-68
2022/05/17 11:17:22;;;;;;;5.00;2.50;;;;;;;;;;9965338;28;20160;-67
2022/05/17 11:22:28;;;;;;;4.53;2.47;;;;;;;;;;9971864;28;20454;-67
2022/05/17 11:27:27;;;;;;;5.55;2.47;;;;;;;;;;9955412;28;20487;-68
2022/05/17 11:32:25;;;;;;;6.65;3.10;;;;;;;;;;9993563;28;20071;-67
2022/05/17 11:37:38;;;;;;;4.63;3.05;;;;;;;;;;9977534;28;20079;-68
2022/05/17 11:43:40;;;;;;;6.35;3.10;;;;;;;;;;9985030;28;20075;-69
2022/05/17 11:48:03;;;;;;;4.55;3.10;;;;;;;;;;9984931;28;20048;-68
2022/05/17 11:53:18;;;;;;;5.70;3.25;;;;;;;;;;9971300;28;20067;-66
2022/05/17 11:58:28;;;;;;;4.28;2.70;;;;;;;;;;9988359;28;20051;-68
2022/05/17 12:03:43;;;;;;;5.28;3.05;;;;;;;;;;9983637;28;20094;-68
2022/05/17 12:08:40;;;;;;;7.20;2.85;;;;;;;;;;9989873;28;20983;-68
2022/05/17 12:13:41;;;;;;;6.97;3.28;;;;;;;;;;9985279;28;20063;-66
2022/05/17 12:18:44;;;;;;;4.10;2.90;;;;;;;;;;10031333;28;20083;-66
2022/05/17 12:23:48;;;;;;;4.40;2.58;;;;;;;;;;9966500;28;20052;-66
2022/05/17 12:28:49;;;;;;;6.68;3.22;;;;;;;;;;9989388;28;20110;-67
2022/05/17 12:33:48;;;;;;;7.18;2.80;;;;;;;;;;9999762;28;20057;-67
2022/05/17 12:44:15;;;;;;;8.57;3.58;;;;;;;;;;9974782;29;20601;-67
2022/05/17 12:49:13;;;;;;;5.45;3.38;;;;;;;;;;9966908;28;20044;-67
2022/05/17 12:54:11;;;;;;;6.57;3.53;;;;;;;;;;9981050;29;20637;-66
2022/05/17 12:59:29;;;;;;;6.63;3.88;;;;;;;;;;9989053;28;20053;-66
2022/05/17 13:04:30;;;;;;;8.20;4.33;;;;;;;;;;9993550;28;20076;-66
2022/05/17 13:09:27;;;;;;;11.02;4.97;;;;;;;;;;9972913;28;20076;-66
2022/05/17 13:14:23;;;;;;;7.78;4.53;;;;;;;;;;9971501;28;20730;-68
2022/05/17 13:19:25;;;;;;;6.53;4.15;;;;;;;;;;9999535;28;20138;-67
2022/05/17 13:24:27;;;;;;;6.50;3.83;;;;;;;;;;9981897;28;20076;-66
2022/05/17 13:29:28;;;;;;;7.18;4.80;;;;;;;;;;9988677;29;20132;-69
2022/05/17 13:34:29;;;;;;;4.80;3.58;;;;;;;;;;9981100;28;20641;-69
2022/05/17 13:39:27;;;;;;;7.93;4.05;;;;;;;;;;9983387;28;20403;-69
2022/05/17 13:44:28;;;;;;;6.07;3.38;;;;;;;;;;9990314;28;20067;-69
2022/05/17 13:49:30;;;;;;;11.73;5.30;;;;;;;;;;9991548;29;20557;-66
2022/05/17 13:54:27;;;;;;;;;;;;;;;;;;9973030;28;20044;-66
2022/05/17 13:59:23;;;;;;;8.07;3.95;;;;;;;;;;9970374;28;20357;-67
2022/05/17 14:04:24;;;;;;;8.93;3.47;;;;;;;;;;9974756;28;20044;-66
2022/05/17 14:14:36;;;;;;;6.00;3.38;;;;;;;;;;9964907;28;20072;-67
2022/05/17 14:19:33;;;;;;;5.78;3.40;;;;;;;;;;9968769;28;20163;-67
2022/05/17 14:24:30;;;;;;;4.63;2.30;;;;;;;;;;9975845;28;20123;-67
2022/05/17 14:29:30;;;;;;;5.10;2.40;;;;;;;;;;10025198;28;20140;-68
2022/05/17 14:34:27;;;;;;;6.07;2.78;;;;;;;;;;9980783;28;20672;-65
2022/05/17 14:39:23;;;;;;;5.32;2.30;;;;;;;;;;9963160;29;20086;-65
2022/05/17 14:44:21;;;;;;;4.45;1.80;;;;;;;;;;9985013;28;20131;-65
2022/05/17 14:49:27;;;;;;;6.60;2.47;;;;;;;;;;9988437;29;20604;-65
2022/05/17 14:54:24;;;;;;;4.80;2.60;;;;;;;;;;9986981;28;20072;-65
2022/05/17 14:59:20;;;;;;;3.17;1.70;;;;;;;;;;9977429;29;20135;-66
2022/05/17 15:04:18;;;;;;;4.70;1.98;;;;;;;;;;10010599;28;20502;-64
2022/05/17 15:09:18;;;;;;;4.63;1.98;;;;;;;;;;9972522;28;20040;-64
2022/05/17 15:14:26;;;;;;;4.35;2.05;;;;;;;;;;9975558;28;20506;-64
2022/05/17 15:19:25;;;;;;;5.03;1.92;;;;;;;;;;9982236;28;20048;-64
2022/05/17 15:24:22;;;;;;;5.43;2.15;;;;;;;;;;10012473;28;20504;-64
2022/05/17 15:29:18;;;;;;;4.97;2.20;;;;;;;;;;10037713;28;20123;-64
2022/05/17 15:34:19;;;;;;;4.22;1.77;;;;;;;;;;9970297;28;20047;-64
2022/05/17 15:39:15;;;;;;;4.63;2.60;;;;;;;;;;9956298;28;20132;-64
2022/05/17 15:44:11;;;;;;;4.70;2.20;;;;;;;;;;9965982;28;20538;-64
2022/05/17 15:54:23;;;;;;;6.00;2.95;;;;;;;;;;9972928;28;21559;-65
2022/05/17 15:59:21;;;;;;;5.20;2.58;;;;;;;;;;9966888;28;20075;-64
2022/05/17 16:09:32;;;;;;;6.25;3.70;;;;;;;;;;9957179;28;20040;-64
2022/05/17 16:14:29;;;;;;;5.32;3.30;;;;;;;;;;9966433;28;20132;-64
2022/05/17 16:19:26;;;;;;;5.50;3.05;;;;;;;;;;9962073;28;20067;-64
2022/05/17 16:24:24;;;;;;;6.53;3.38;;;;;;;;;;9971316;28;20052;-64
2022/05/17 16:29:20;;;;;;;6.65;3.50;;;;;;;;;;9964491;28;20106;-64
2022/05/17 16:34:20;;;;;;;6.63;3.75;;;;;;;;;;9956918;28;20271;-64
2022/05/17 16:39:16;;;;;;;8.75;3.97;;;;;;;;;;9961040;28;20159;-64
2022/05/17 16:44:12;;;;;;;6.88;4.38;;;;;;;;;;9963656;28;20052;-64
2022/05/17 16:49:10;;;;;;;6.65;4.10;;;;;;;;;;9951815;28;20079;-64
2022/05/17 16:54:07;;;;;;;7.53;4.88;;;;;;;;;;9963607;28;20099;-65
2022/05/17 16:59:04;;;;;;;7.53;4.93;;;;;;;;;;9965546;28;20506;-64
2022/05/17 17:04:00;;;;;;;7.80;4.78;;;;;;;;;;9938534;28;20147;-64
2022/05/17 17:08:59;;;;;;;6.15;3.63;;;;;;;;;;9964230;28;20127;-65
2022/05/17 17:13:56;;;;;;;7.70;4.53;;;;;;;;;;9975468;28;20517;-65
2022/05/17 17:18:56;;;;;;;7.22;5.35;;;;;;;;;;9970866;28;20143;-66
2022/05/17 17:23:52;;;;;;;7.32;5.25;;;;;;;;;;9966143;28;20044;-66
2022/05/17 17:28:48;;;;;;;6.88;4.95;;;;;;;;;;9963835;28;20447;-65
2022/05/17 17:39:00;;;;;;;5.63;3.42;;;;;;;;;;9961021;28;20049;-66
2022/05/17 17:43:56;;;;;;;7.32;4.00;;;;;;;;;;9968081;28;20103;-66
2022/05/17 17:48:54;;;;;;;11.02;4.95;;;;;;;;;;9975691;29;20084;-66
2022/05/17 17:53:50;;;;;;;7.82;4.15;;;;;;;;;;9973850;28;20197;-67
2022/05/17 17:58:47;;;;;;;10.23;3.85;;;;;;;;;;9966468;28;20049;-66
2022/05/17 18:03:43;;;;;;;6.60;3.88;;;;;;;;;;9946683;28;20118;-66
2022/05/17 18:08:39;;;;;;;6.25;3.90;;;;;;;;;;9954149;28;20497;-67
2022/05/17 18:13:38;;;;;;;6.90;4.15;;;;;;;;;;9969326;28;20425;-66
2022/05/17 18:18:34;;;;;;;8.20;3.95;;;;;;;;;;9974969;28;20494;-66
2022/05/17 18:23:31;;;;;;;6.82;3.70;;;;;;;;;;9988691;28;20075;-66
2022/05/17 18:28:30;;;;;;;6.57;4.00;;;;;;;;;;9988493;28;20068;-66
2022/05/17 18:33:26;;;;;;;7.03;3.90;;;;;;;;;;10007110;28;20712;-67
2022/05/17 18:38:23;;;;;;;5.97;4.10;;;;;;;;;;10000967;28;20041;-67
2022/05/17 18:43:19;;;;;;;6.68;4.78;;;;;;;;;;10002273;28;20136;-66
2022/05/17 18:48:17;;;;;;;7.63;5.40;;;;;;;;;;9994757;28;21583;-66
2022/05/17 18:53:14;;;;;;;6.88;4.95;;;;;;;;;;9985481;28;20040;-66
2022/05/17 18:58:11;;;;;;;8.10;5.72;;;;;;;;;;9982690;28;20126;-66
2022/05/17 19:03:12;;;;;;;9.45;5.28;;;;;;;;;;10015195;28;20050;-66
2022/05/17 19:13:30;;;;;;;9.35;6.50;;;;;;;;;;9968363;28;20127;-66
2022/05/17 19:18:27;;;;;;;9.35;6.57;;;;;;;;;;9969021;28;20056;-65
2022/05/17 19:23:23;;;;;;;11.13;7.07;;;;;;;;;;9968664;28;20482;-66
2022/05/17 19:28:20;;;;;;;13.25;7.90;;;;;;;;;;9966795;28;20083;-66
2022/05/17 19:33:22;;;;;;;13.43;7.47;;;;;;;;;;9969404;29;20127;-65
2022/05/17 19:43:34;;;;;;;12.45;8.70;;;;;;;;;;9973735;28;20090;-65
2022/05/17 19:48:32;;;;;;;10.20;7.95;;;;;;;;;;9957170;28;20144;-66
2022/05/17 19:53:30;;;;;;;10.60;8.93;;;;;;;;;;9983576;28;20107;-66
2022/05/17 19:58:27;;;;;;;12.48;8.63;;;;;;;;;;10004106;28;20131;-66
2022/05/17 20:03:26;;;;;;;14.52;9.15;;;;;;;;;;9981395;28;20048;-63
2022/05/17 20:08:23;;;;;;;11.35;8.63;;;;;;;;;;9971727;28;20427;-64
2022/05/17 20:13:20;;;;;;;13.02;9.05;;;;;;;;;;9969413;28;20143;-65
2022/05/17 20:18:16;;;;;;;12.23;8.98;;;;;;;;;;9965371;29;20048;-66
2022/05/17 20:23:13;;;;;;;14.73;10.07;;;;;;;;;;9961014;28;20810;-65
2022/05/17 20:28:11;;;;;;;12.60;10.20;;;;;;;;;;9960230;28;20079;-65
2022/05/17 20:33:08;;;;;;;12.93;9.50;;;;;;;;;;9972935;28;20079;-65
2022/05/17 20:38:04;;;;;;;14.52;10.18;;;;;;;;;;9968233;28;20107;-65
2022/05/17 20:43:01;;;;;;;16.23;11.73;;;;;;;;;;9965086;28;20052;-66
2022/05/17 20:53:13;;;;;;;16.30;10.43;;;;;;;;;;9963993;28;20102;-66
2022/05/17 20:58:10;;;;;;;17.08;12.07;;;;;;;;;;9964385;28;20048;-65
2022/05/17 21:03:07;;;;;;;13.68;10.95;;;;;;;;;;9971027;29;20151;-64
2022/05/17 21:08:04;;;;;;;17.60;9.70;;;;;;;;;;9981441;29;20131;-63
2022/05/17 21:13:01;;;;;;;12.35;10.65;;;;;;;;;;9975100;29;20139;-63
2022/05/17 21:18:00;;;;;;;12.13;9.02;;;;;;;;;;9977761;28;20449;-63
2022/05/17 21:22:56;;;;;;;12.82;9.93;;;;;;;;;;10015266;28;20075;-64
2022/05/17 21:27:52;;;;;;;15.82;10.45;;;;;;;;;;9960206;28;20053;-65
2022/05/17 21:32:49;;;;;;;15.23;11.70;;;;;;;;;;10067761;28;20066;-66
2022/05/17 21:37:46;;;;;;;15.02;9.95;;;;;;;;;;10011627;28;20072;-66
2022/05/17 21:42:45;;;;;;;14.55;10.38;;;;;;;;;;9978864;28;20076;-64
2022/05/17 21:47:44;;;;;;;13.07;10.27;;;;;;;;;;9991334;29;20135;-63
2022/05/17 21:52:40;;;;;;;14.95;9.23;;;;;;;;;;9994771;28;20522;-64
2022/05/17 21:57:38;;;;;;;13.25;9.55;;;;;;;;;;9989940;28;20055;-65
2022/05/17 22:02:34;;;;;;;16.48;9.50;;;;;;;;;;9990766;28;20086;-65
2022/05/17 22:07:30;;;;;;;11.85;8.25;;;;;;;;;;9991252;29;20083;-65
2022/05/17 22:17:41;;;;;;;10.05;6.82;;;;;;;;;;9982095;28;20136;-64
2022/05/17 22:22:38;;;;;;;8.85;6.22;;;;;;;;;;10047849;28;20453;-64
2022/05/17 22:27:34;;;;;;;6.97;5.22;;;;;;;;;;9962930;28;20082;-64
2022/05/17 22:32:30;;;;;;;6.75;5.00;;;;;;;;;;10026637;28;20060;-64
2022/05/17 22:37:26;;;;;;;7.30;4.93;;;;;;;;;;10004228;28;20528;-64
2022/05/17 22:42:23;;;;;;;8.73;4.55;;;;;;;;;;9985859;28;20048;-64
2022/05/17 22:47:19;;;;;;;7.43;4.30;;;;;;;;;;9993569;28;20080;-64
2022/05/17 22:52:16;;;;;;;7.35;4.30;;;;;;;;;;10013858;28;20539;-64
2022/05/17 22:57:12;;;;;;;6.40;4.07;;;;;;;;;;10010513;28;20131;-68
2022/05/17 23:02:08;;;;;;;6.10;4.10;;;;;;;;;;9990637;28;20464;-64
2022/05/17 23:07:04;;;;;;;6.07;4.18;;;;;;;;;;9964789;28;20593;-64
2022/05/17 23:12:01;;;;;;;6.32;3.97;;;;;;;;;;9985168;29;20107;-64
2022/05/17 23:16:58;;;;;;;7.38;3.70;;;;;;;;;;9992153;29;20131;-64
2022/05/17 23:21:54;;;;;;;4.70;3.58;;;;;;;;;;10010859;28;20048;-65
2022/05/17 23:32:16;;;;;;;5.43;2.25;;;;;;;;;;10051413;28;20071;-64
2022/05/17 23:37:13;;;;;;;5.50;2.03;;;;;;;;;;10041694;28;20078;-63
2022/05/17 23:42:09;;;;;;;5.25;1.67;;;;;;;;;;10008248;28;20482;-64
2022/05/17 23:47:05;;;;;;;6.43;1.88;;;;;;;;;;9990735;28;20044;-64
2022/05/17 23:52:02;;;;;;;7.05;1.52;;;;;;;;;;9987174;29;20071;-64
2022/05/17 23:56:58;;;;;;;6.07;1.30;;;;;;;;;;9982120;29;20139;-64
